Time;durP1;ratioP1;P1;durP2;ratioP2;P2;SDS_P1;SDS_P2;PMS_P1;PMS_P2;Temp;Humidity;BMP_temperature;BMP_pressure;BME280_temperature;BME280_humidity;BME280_pressure;Samples;Min_cycle;Max_cycle;Signal;HPM_P1;HPM_P2
2023/10/15 00:00:22;;;;;;;;;;;;;;;11.47;57.99;100804.50;6119633;23;6947;-76
2023/10/15 00:02:50;;;;;;;;;;;;;;;11.44;57.69;100794.94;6118172;23;6962;-76
2023/10/15 00:05:19;;;;;;;;;;;;;;;11.41;58.13;100789.66;6143059;23;6991;-76
2023/10/15 00:07:49;;;;;;;;;;;;;;;11.39;57.94;100792.16;6143291;23;6843;-75
2023/10/15 00:10:21;;;;;;;;;;;;;;;11.35;57.74;100790.25;6119559;23;6953;-75
2023/10/15 00:12:50;;;;;;;;;;;;;;;11.34;57.96;100790.16;6119070;23;6830;-75
2023/10/15 00:15:20;;;;;;;;;;;;;;;11.31;57.77;100803.69;6118410;23;6953;-74
2023/10/15 00:17:47;;;;;;;;;;;;;;;11.30;58.25;100795.91;6143222;23;6839;-75
2023/10/15 00:20:19;;;;;;;;;;;;;;;11.29;58.62;100799.28;6118944;23;6771;-75
2023/10/15 00:22:46;;;;;;;;;;;;;;;11.28;58.17;100792.38;6142182;23;6842;-75
2023/10/15 00:25:14;;;;;;;;;;;;;;;11.25;58.25;100794.00;6118816;23;6775;-74
2023/10/15 00:27:52;;;;;;;;;;;;;;;11.23;58.44;100790.47;6142142;23;6786;-75
2023/10/15 00:30:19;;;;;;;;;;;;;;;11.19;58.31;100783.41;6141322;23;7514;-75
2023/10/15 00:32:46;;;;;;;;;;;;;;;11.20;58.63;100789.44;6141758;23;6775;-77
2023/10/15 00:35:14;;;;;;;;;;;;;;;11.20;58.59;100787.78;6141507;23;6843;-78
2023/10/15 00:37:41;;;;;;;;;;;;;;;11.19;58.40;100790.25;6143607;23;7152;-78
2023/10/15 00:40:16;;;;;;;;;;;;;;;11.19;58.48;100793.69;6118718;23;7035;-77
2023/10/15 00:42:45;;;;;;;;;;;;;;;11.17;58.78;100800.41;6118544;23;6771;-78
2023/10/15 00:45:15;;;;;;;;;;;;;;;11.18;58.61;100801.31;6141526;23;6775;-76
2023/10/15 00:47:43;;;;;;;;;;;;;;;11.16;58.67;100806.34;6142146;23;6933;-77
2023/10/15 00:50:09;;;;;;;;;;;;;;;11.16;58.45;100808.06;6118964;23;6845;-76
2023/10/15 00:52:42;;;;;;;;;;;;;;;11.14;58.47;100802.84;6118515;23;6783;-77
2023/10/15 00:55:16;;;;;;;;;;;;;;;11.12;58.46;100794.19;6142852;23;6855;-78
2023/10/15 00:57:47;;;;;;;;;;;;;;;11.11;58.74;100802.69;6143102;23;7325;-78
2023/10/15 01:03:09;;;;;;;;;;;;;;;11.08;58.75;100797.38;6118029;23;11397;-77
2023/10/15 01:05:45;;;;;;;;;;;;;;;11.07;58.80;100793.03;6119734;23;6994;-78
2023/10/15 01:08:16;;;;;;;;;;;;;;;11.08;58.43;100794.81;6140482;23;7332;-78
2023/10/15 01:10:42;;;;;;;;;;;;;;;11.06;59.10;100797.31;6143380;23;6951;-78
2023/10/15 01:13:18;;;;;;;;;;;;;;;11.06;58.91;100793.84;6119237;23;6782;-78
2023/10/15 01:15:48;;;;;;;;;;;;;;;11.04;58.83;100793.75;6121052;23;6973;-73
2023/10/15 01:18:13;;;;;;;;;;;;;;;11.05;58.92;100789.53;6117410;23;6778;-74
2023/10/15 01:20:43;;;;;;;;;;;;;;;11.03;58.71;100786.88;6117512;23;6763;-75
2023/10/15 01:23:28;;;;;;;;;;;;;;;11.04;58.82;100795.47;6119353;23;7227;-73
2023/10/15 01:25:59;;;;;;;;;;;;;;;11.01;58.78;100787.59;6139644;23;6778;-73
2023/10/15 01:28:36;;;;;;;;;;;;;;;10.98;58.94;100796.88;6118952;23;6778;-73
2023/10/15 01:31:05;;;;;;;;;;;;;;;10.97;58.63;100786.56;6140729;23;6767;-73
2023/10/15 01:33:45;;;;;;;;;;;;;;;10.96;59.09;100787.34;6139951;23;6766;-74
2023/10/15 01:36:18;;;;;;;;;;;;;;;10.94;58.91;100786.38;6118015;23;6775;-73
2023/10/15 01:38:44;;;;;;;;;;;;;;;10.94;58.77;100788.94;6142105;23;7083;-73
2023/10/15 01:41:16;;;;;;;;;;;;;;;10.93;59.01;100776.94;6117687;23;6771;-75
2023/10/15 01:43:46;;;;;;;;;;;;;;;10.92;59.33;100780.31;6140969;23;6989;-74
2023/10/15 01:46:39;;;;;;;;;;;;;;;10.93;58.92;100787.19;6119309;23;7195;-73
2023/10/15 01:49:06;;;;;;;;;;;;;;;10.91;59.27;100779.44;6117326;23;6953;-71
2023/10/15 01:51:39;;;;;;;;;;;;;;;10.94;58.87;100784.72;6117893;23;7189;-70
2023/10/15 01:54:15;;;;;;;;;;;;;;;10.92;58.97;100778.63;6115201;23;6973;-72
2023/10/15 01:56:44;;;;;;;;;;;;;;;10.93;59.01;100780.41;6141244;23;6890;-71
2023/10/15 01:59:11;;;;;;;;;;;;;;;10.94;59.17;100779.59;6093347;23;7851;-72
2023/10/15 02:01:40;;;;;;;;;;;;;;;10.95;59.29;100781.34;6116162;23;6827;-72
2023/10/15 02:04:50;;;;;;;;;;;;;;;10.96;59.35;100780.53;6140683;23;6940;-70
2023/10/15 02:06:56;;;;;;;;;;;;;;;10.97;59.42;100789.13;6111164;23;6755;-71
2023/10/15 02:09:22;;;;;;;;;;;;;;;10.97;59.45;100787.44;6092802;23;7283;-71
2023/10/15 02:11:54;;;;;;;;;;;;;;;10.99;58.88;100779.84;6117105;23;6942;-70
2023/10/15 02:14:23;;;;;;;;;;;;;;;11.00;59.26;100780.69;6118629;23;6929;-71
2023/10/15 02:16:49;;;;;;;;;;;;;;;11.03;59.20;100780.88;6117342;23;6898;-71
2023/10/15 02:21:59;;;;;;;;;;;;;;;11.07;59.39;100782.78;6147823;23;6762;-72
2023/10/15 02:24:24;;;;;;;;;;;;;;;11.11;59.03;100787.28;6116598;23;6766;-72
2023/10/15 02:26:50;;;;;;;;;;;;;;;11.18;59.48;100786.78;6116980;23;6939;-72
2023/10/15 02:29:35;;;;;;;;;;;;;;;11.25;59.30;100788.88;6116098;23;7192;-71
2023/10/15 02:32:08;;;;;;;;;;;;;;;11.34;59.94;100788.44;6093714;23;6965;-70
2023/10/15 02:34:42;;;;;;;;;;;;;;;11.45;59.62;100785.56;6116978;23;6779;-71
2023/10/15 02:37:16;;;;;;;;;;;;;;;11.54;59.55;100780.91;6137458;23;6779;-71
2023/10/15 02:39:49;;;;;;;;;;;;;;;11.63;59.02;100791.59;6139272;23;7037;-70
2023/10/15 02:42:17;;;;;;;;;;;;;;;11.68;58.67;100784.13;6116746;23;6800;-72
2023/10/15 02:44:42;;;;;;;;;;;;;;;11.72;59.10;100788.63;6139429;23;6977;-72
2023/10/15 02:47:19;;;;;;;;;;;;;;;11.74;58.57;100783.59;6115970;23;7177;-71
2023/10/15 02:49:51;;;;;;;;;;;;;;;11.75;58.78;100785.34;6114723;23;6774;-73
2023/10/15 02:52:20;;;;;;;;;;;;;;;11.75;58.48;100782.78;6137985;23;6778;-72
2023/10/15 02:54:46;;;;;;;;;;;;;;;11.74;58.60;100789.59;6140227;23;6949;-71
2023/10/15 02:57:16;;;;;;;;;;;;;;;11.73;58.17;100786.94;6091788;23;7403;-70
2023/10/15 02:59:52;;;;;;;;;;;;;;;11.69;57.78;100793.63;6138945;23;6842;-71
2023/10/15 03:02:20;;;;;;;;;;;;;;;11.63;58.24;100785.59;6116957;23;6931;-71
2023/10/15 03:04:55;;;;;;;;;;;;;;;11.60;57.92;100788.91;6140601;23;6922;-72
2023/10/15 03:07:30;;;;;;;;;;;;;;;11.57;58.09;100785.28;6118955;23;6977;-72
2023/10/15 03:09:57;;;;;;;;;;;;;;;11.57;58.00;100788.75;6115062;23;6854;-71
2023/10/15 03:12:33;;;;;;;;;;;;;;;11.59;58.09;100787.13;6116175;23;7156;-73
2023/10/15 03:15:00;;;;;;;;;;;;;;;11.63;58.72;100793.31;6140452;23;6779;-71
2023/10/15 03:17:29;;;;;;;;;;;;;;;11.67;58.15;100787.50;6139802;23;6775;-70
2023/10/15 03:19:56;;;;;;;;;;;;;;;11.71;57.84;100788.53;6118829;23;6988;-71
2023/10/15 03:22:24;;;;;;;;;;;;;;;11.73;57.90;100792.97;6140471;23;6770;-70
2023/10/15 03:24:56;;;;;;;;;;;;;;;11.74;57.74;100793.84;6117762;23;6914;-72
2023/10/15 03:27:26;;;;;;;;;;;;;;;11.77;57.65;100801.69;6140598;23;7823;-71
2023/10/15 03:29:56;;;;;;;;;;;;;;;11.78;57.72;100794.09;6117719;23;6972;-71
2023/10/15 03:32:31;;;;;;;;;;;;;;;11.76;57.79;100787.97;6118469;23;6779;-71
2023/10/15 03:35:16;;;;;;;;;;;;;;;11.72;57.60;100786.06;6140158;23;6770;-74
2023/10/15 03:37:46;;;;;;;;;;;;;;;11.66;57.42;100796.91;6137248;23;6810;-78
2023/10/15 03:40:30;;;;;;;;;;;;;;;11.68;57.81;100799.53;6141266;23;6855;-78
2023/10/15 03:43:15;;;;;;;;;;;;;;;11.67;57.87;100792.63;6138061;23;6952;-76
2023/10/15 03:45:53;;;;;;;;;;;;;;;11.65;57.69;100800.28;6138325;23;6775;-74
2023/10/15 03:48:28;;;;;;;;;;;;;;;11.62;56.99;100809.53;6117859;23;6947;-73
2023/10/15 03:50:58;;;;;;;;;;;;;;;11.56;57.03;100797.25;6117183;23;6779;-75
2023/10/15 03:53:30;;;;;;;;;;;;;;;11.48;57.33;100794.28;6142717;23;7216;-75
2023/10/15 03:56:01;;;;;;;;;;;;;;;11.47;57.68;100795.09;6117592;23;6782;-74
2023/10/15 03:58:36;;;;;;;;;;;;;;;11.43;57.50;100800.88;6142491;23;6778;-75
2023/10/15 04:03:35;;;;;;;;;;;;;;;11.43;57.87;100803.44;6150989;23;6968;-75
2023/10/15 04:06:05;;;;;;;;;;;;;;;11.46;57.94;100800.16;6092126;23;7175;-75
2023/10/15 04:08:34;;;;;;;;;;;;;;;11.49;58.00;100790.94;6116949;23;7053;-74
2023/10/15 04:11:01;;;;;;;;;;;;;;;11.54;58.22;100801.44;6117748;23;7663;-73
2023/10/15 04:13:27;;;;;;;;;;;;;;;11.57;57.89;100796.44;6118008;23;7125;-74
2023/10/15 04:15:54;;;;;;;;;;;;;;;11.58;57.54;100800.78;6120106;23;6994;-75
2023/10/15 04:18:25;;;;;;;;;;;;;;;11.57;57.57;100803.25;6142361;23;7034;-75
2023/10/15 04:20:55;;;;;;;;;;;;;;;11.50;57.66;100795.28;6113708;23;6805;-76
2023/10/15 04:23:31;;;;;;;;;;;;;;;11.46;56.56;100797.59;6116414;23;6963;-75
2023/10/15 04:26:14;;;;;;;;;;;;;;;11.36;57.10;100797.13;6116828;23;6775;-75
2023/10/15 04:28:41;;;;;;;;;;;;;;;11.30;57.50;100804.50;6140701;23;6775;-75
2023/10/15 04:31:12;;;;;;;;;;;;;;;11.22;57.20;100811.81;6139475;23;7596;-75
2023/10/15 04:33:41;;;;;;;;;;;;;;;11.14;57.00;100801.94;6142162;23;7121;-75
2023/10/15 04:36:10;;;;;;;;;;;;;;;11.09;57.37;100801.69;6140244;23;7643;-75
2023/10/15 04:38:37;;;;;;;;;;;;;;;11.02;57.38;100804.75;6118725;23;6854;-75
2023/10/15 04:41:04;;;;;;;;;;;;;;;10.97;57.41;100807.94;6141510;23;6775;-75
2023/10/15 04:43:40;;;;;;;;;;;;;;;10.93;57.81;100808.59;6118109;23;6924;-76
2023/10/15 04:46:07;;;;;;;;;;;;;;;10.90;57.64;100805.84;6116265;23;6791;-71
2023/10/15 04:48:36;;;;;;;;;;;;;;;10.88;57.58;100815.16;6114175;23;7232;-70
2023/10/15 04:51:11;;;;;;;;;;;;;;;10.89;57.86;100819.47;6138267;23;6910;-70
2023/10/15 04:53:36;;;;;;;;;;;;;;;10.90;58.11;100815.25;6141569;23;6946;-70
2023/10/15 04:56:04;;;;;;;;;;;;;;;10.94;58.04;100817.16;6117616;23;6949;-72
2023/10/15 04:58:30;;;;;;;;;;;;;;;11.03;58.33;100816.78;6116049;23;6778;-71
2023/10/15 05:00:58;;;;;;;;;;;;;;;11.08;58.55;100810.19;6116894;23;6771;-71
2023/10/15 05:03:24;;;;;;;;;;;;;;;11.09;57.83;100801.69;6140690;23;7143;-70
2023/10/15 05:05:51;;;;;;;;;;;;;;;11.06;57.82;100814.38;6140017;23;7219;-70
2023/10/15 05:08:17;;;;;;;;;;;;;;;11.03;58.30;100809.97;6141072;23;7181;-71
2023/10/15 05:10:52;;;;;;;;;;;;;;;11.00;58.17;100803.78;6141044;23;6969;-72
2023/10/15 05:13:19;;;;;;;;;;;;;;;10.98;58.28;100812.28;6139580;23;7003;-71
2023/10/15 05:15:49;;;;;;;;;;;;;;;11.00;58.16;100809.81;6083225;23;7065;-71
2023/10/15 05:18:18;;;;;;;;;;;;;;;11.02;58.30;100815.88;6141932;23;6842;-71
2023/10/15 05:20:48;;;;;;;;;;;;;;;11.06;58.60;100817.84;6138581;23;6926;-71
2023/10/15 05:23:16;;;;;;;;;;;;;;;11.11;58.13;100818.06;6142161;23;7568;-70
2023/10/15 05:25:41;;;;;;;;;;;;;;;11.17;58.77;100828.63;6118911;23;6778;-71
2023/10/15 05:28:07;;;;;;;;;;;;;;;11.25;58.63;100855.59;6117757;23;6755;-72
2023/10/15 05:30:34;;;;;;;;;;;;;;;11.31;58.48;100857.59;6115296;23;6922;-71
2023/10/15 05:33:01;;;;;;;;;;;;;;;11.38;58.65;100858.78;6140540;23;6775;-72
2023/10/15 05:35:27;;;;;;;;;;;;;;;11.43;58.32;100856.47;6116134;23;6979;-71
2023/10/15 05:37:54;;;;;;;;;;;;;;;11.48;57.86;100861.03;6117272;23;6775;-71
2023/10/15 05:40:23;;;;;;;;;;;;;;;11.51;58.46;100868.00;6115346;23;6973;-70
2023/10/15 05:42:49;;;;;;;;;;;;;;;11.55;58.43;100872.50;6115248;23;7021;-70
2023/10/15 05:45:18;;;;;;;;;;;;;;;11.53;57.94;100869.84;6140532;23;7218;-72
2023/10/15 05:47:44;;;;;;;;;;;;;;;11.51;58.09;100848.38;6140371;23;7037;-72
2023/10/15 05:50:12;;;;;;;;;;;;;;;11.48;57.84;100848.19;6142058;23;6759;-72
2023/10/15 05:52:39;;;;;;;;;;;;;;;11.44;58.17;100856.53;6140771;23;6939;-73
2023/10/15 05:55:06;;;;;;;;;;;;;;;11.41;57.67;100848.69;6142828;23;6779;-77
2023/10/15 05:57:33;;;;;;;;;;;;;;;11.35;58.09;100848.38;6146393;23;7215;-76
2023/10/15 06:00:17;;;;;;;;;;;;;;;11.29;58.17;100858.31;6146018;23;6775;-78
2023/10/15 06:02:48;;;;;;;;;;;;;;;11.21;58.08;100861.38;6122743;23;12047;-78
2023/10/15 06:05:14;;;;;;;;;;;;;;;11.11;58.09;100852.28;6121297;23;6957;-78
2023/10/15 06:07:46;;;;;;;;;;;;;;;11.08;58.53;100864.06;6124187;23;7017;-77
2023/10/15 06:10:12;;;;;;;;;;;;;;;11.03;58.83;100875.78;6172523;23;7260;-78
2023/10/15 06:12:39;;;;;;;;;;;;;;;11.05;59.23;100881.88;6148723;23;6822;-78
2023/10/15 06:15:06;;;;;;;;;;;;;;;11.06;59.13;100884.53;6173876;23;6964;-77
2023/10/15 06:17:32;;;;;;;;;;;;;;;11.09;59.38;100888.91;6151352;23;6774;-77
2023/10/15 06:19:58;;;;;;;;;;;;;;;11.11;59.30;100884.78;6123757;23;7231;-76
2023/10/15 06:22:25;;;;;;;;;;;;;;;11.15;59.13;100875.53;6154586;23;6787;-75
2023/10/15 06:24:52;;;;;;;;;;;;;;;11.18;59.86;100866.31;6154481;23;6842;-77
2023/10/15 06:27:18;;;;;;;;;;;;;;;11.20;59.51;100875.00;6153896;23;6782;-76
2023/10/15 06:29:44;;;;;;;;;;;;;;;11.22;59.35;100875.06;6132038;23;6970;-76
2023/10/15 06:32:10;;;;;;;;;;;;;;;11.23;59.66;100876.81;6132221;23;7263;-75
2023/10/15 06:34:39;;;;;;;;;;;;;;;11.20;59.58;100868.97;6130904;23;8750;-81
2023/10/15 06:37:08;;;;;;;;;;;;;;;11.13;59.10;100870.34;6179720;23;6997;-76
2023/10/15 06:39:34;;;;;;;;;;;;;;;11.06;59.13;100870.81;6128881;23;6971;-77
2023/10/15 06:42:00;;;;;;;;;;;;;;;11.01;59.29;100877.34;6153172;23;6778;-76
2023/10/15 06:44:26;;;;;;;;;;;;;;;10.93;59.66;100893.25;6155332;23;6779;-76
2023/10/15 06:46:52;;;;;;;;;;;;;;;10.87;59.45;100895.47;6129253;23;6930;-78
2023/10/15 06:49:18;;;;;;;;;;;;;;;10.79;59.97;100895.06;6154462;23;6920;-78
2023/10/15 06:51:44;;;;;;;;;;;;;;;10.75;59.86;100895.66;6128969;23;7165;-79
2023/10/15 06:54:11;;;;;;;;;;;;;;;10.72;60.32;100907.41;6154912;23;6986;-79
2023/10/15 06:56:38;;;;;;;;;;;;;;;10.73;59.80;100904.94;6153040;23;6856;-80
2023/10/15 06:59:04;;;;;;;;;;;;;;;10.76;60.49;100910.25;6153886;23;7012;-80
2023/10/15 07:01:30;;;;;;;;;;;;;;;10.80;60.42;100912.19;6152963;23;6791;-79
2023/10/15 07:03:56;;;;;;;;;;;;;;;10.82;60.65;100910.59;6129344;23;7167;-76
2023/10/15 07:06:23;;;;;;;;;;;;;;;10.88;60.94;100912.59;6137762;23;6774;-78
2023/10/15 07:08:50;;;;;;;;;;;;;;;10.97;61.17;100917.38;6119217;23;6917;-79
2023/10/15 07:11:16;;;;;;;;;;;;;;;11.09;61.11;100912.91;6094339;23;6966;-79
2023/10/15 07:13:42;;;;;;;;;;;;;;;11.19;61.41;100909.13;6094135;23;6945;-78
2023/10/15 07:16:08;;;;;;;;;;;;;;;11.30;61.25;100913.94;6117629;23;6774;-78
2023/10/15 07:18:33;;;;;;;;;;;;;;;11.41;60.73;100915.44;6117088;23;6914;-78
2023/10/15 07:20:59;;;;;;;;;;;;;;;11.52;61.06;100914.31;6113584;23;6747;-78
2023/10/15 07:23:25;;;;;;;;;;;;;;;11.70;61.96;100910.94;6119998;23;6975;-79
2023/10/15 07:25:51;;;;;;;;;;;;;;;11.91;62.00;100910.25;6116941;23;6782;-79
2023/10/15 07:28:17;;;;;;;;;;;;;;;12.12;62.07;100909.59;6116841;23;7065;-78
2023/10/15 07:30:42;;;;;;;;;;;;;;;12.30;61.11;100918.22;6115247;23;7318;-79
2023/10/15 07:33:08;;;;;;;;;;;;;;;12.43;61.41;100918.81;6117906;23;6835;-78
2023/10/15 07:35:35;;;;;;;;;;;;;;;12.51;60.79;100935.50;6118225;23;7034;-78
2023/10/15 07:38:04;;;;;;;;;;;;;;;12.56;59.95;100940.88;6119430;23;6779;-80
2023/10/15 07:40:32;;;;;;;;;;;;;;;12.56;59.60;100957.19;6117800;23;6774;-80
2023/10/15 07:43:02;;;;;;;;;;;;;;;12.55;59.90;100957.09;6117916;23;7303;-78
2023/10/15 07:45:32;;;;;;;;;;;;;;;12.52;59.31;100962.97;6119592;23;6946;-80
2023/10/15 07:48:01;;;;;;;;;;;;;;;12.43;59.58;100959.94;6118609;23;6955;-80
2023/10/15 07:50:32;;;;;;;;;;;;;;;12.32;59.33;100952.59;6116652;23;7114;-78
2023/10/15 07:52:58;;;;;;;;;;;;;;;12.23;59.17;100954.69;6091747;23;8024;-79
2023/10/15 07:55:24;;;;;;;;;;;;;;;12.16;59.50;100958.66;6117210;23;6791;-76
2023/10/15 07:57:51;;;;;;;;;;;;;;;12.15;59.93;100958.56;6116871;23;6980;-79
2023/10/15 08:00:23;;;;;;;;;;;;;;;12.16;59.69;100960.31;6114776;23;6966;-76
2023/10/15 08:02:52;;;;;;;;;;;;;;;12.15;59.52;100954.31;6115925;23;6775;-78
2023/10/15 08:05:20;;;;;;;;;;;;;;;12.19;59.86;100955.38;6093411;23;6984;-78
2023/10/15 08:07:50;;;;;;;;;;;;;;;12.25;59.94;100965.06;6119665;23;6790;-79
2023/10/15 08:10:17;;;;;;;;;;;;;;;12.32;60.57;100960.31;6094427;23;7515;-79
2023/10/15 08:12:44;;;;;;;;;;;;;;;12.43;60.43;100957.38;6118502;23;6775;-79
2023/10/15 08:15:10;;;;;;;;;;;;;;;12.57;60.48;100966.66;6118385;23;6767;-75
2023/10/15 08:17:36;;;;;;;;;;;;;;;12.69;59.95;100968.94;6119616;23;6779;-75
2023/10/15 08:20:04;;;;;;;;;;;;;;;12.79;60.42;100967.69;6120129;23;7013;-75
2023/10/15 08:22:30;;;;;;;;;;;;;;;12.90;59.78;100969.09;6118288;23;6783;-74
2023/10/15 08:24:55;;;;;;;;;;;;;;;12.99;60.42;100980.63;6120865;23;6917;-75
2023/10/15 08:27:21;;;;;;;;;;;;;;;13.09;60.71;100972.53;6118865;23;6770;-75
2023/10/15 08:29:47;;;;;;;;;;;;;;;13.18;59.98;100975.53;6119260;23;6964;-74
2023/10/15 08:32:18;;;;;;;;;;;;;;;13.28;60.62;100984.59;6118190;23;6939;-75
2023/10/15 08:34:45;;;;;;;;;;;;;;;13.34;59.31;100981.41;6119119;23;7163;-74
2023/10/15 08:37:11;;;;;;;;;;;;;;;13.40;59.56;100991.09;6117807;23;7006;-74
2023/10/15 08:39:40;;;;;;;;;;;;;;;13.46;59.64;100987.13;6117453;23;7022;-74
2023/10/15 08:42:29;;;;;;;;;;;;;;;13.54;59.13;100991.75;6116418;23;6794;-72
2023/10/15 08:44:58;;;;;;;;;;;;;;;13.57;59.57;101003.09;6117443;23;6824;-72
2023/10/15 08:47:25;;;;;;;;;;;;;;;13.62;59.15;101000.72;6095352;23;6963;-72
2023/10/15 08:49:53;;;;;;;;;;;;;;;13.67;59.30;101006.09;6118683;23;6791;-73
2023/10/15 08:52:20;;;;;;;;;;;;;;;13.72;59.34;101018.34;6118388;23;7054;-73
2023/10/15 08:54:46;;;;;;;;;;;;;;;13.78;59.36;101016.84;6118322;23;6966;-71
2023/10/15 08:57:14;;;;;;;;;;;;;;;13.81;58.91;101022.13;6120033;23;6779;-72
2023/10/15 08:59:43;;;;;;;;;;;;;;;13.85;58.76;101018.91;6118362;23;7241;-73
2023/10/15 09:02:09;;;;;;;;;;;;;;;13.92;59.34;101020.94;6117531;23;6786;-72
2023/10/15 09:04:35;;;;;;;;;;;;;;;13.98;59.27;101023.75;6118457;23;6798;-72
2023/10/15 09:07:03;;;;;;;;;;;;;;;14.05;58.66;101026.63;6117983;23;6913;-72
2023/10/15 09:09:32;;;;;;;;;;;;;;;14.11;58.42;101034.63;6118289;23;6858;-71
2023/10/15 09:11:58;;;;;;;;;;;;;;;14.15;58.13;101028.78;6093892;23;7247;-72
2023/10/15 09:14:45;;;;;;;;;;;;;;;14.20;58.28;101045.34;6120605;23;6775;-71
2023/10/15 09:17:16;;;;;;;;;;;;;;;14.25;57.58;101046.41;6116507;23;6966;-72
2023/10/15 09:19:44;;;;;;;;;;;;;;;14.30;58.60;101047.50;6115399;23;6778;-71
2023/10/15 09:22:17;;;;;;;;;;;;;;;14.38;57.86;101052.09;6118313;23;6966;-73
2023/10/15 09:24:46;;;;;;;;;;;;;;;14.41;57.01;101059.97;6093410;23;8349;-72
2023/10/15 09:27:14;;;;;;;;;;;;;;;14.44;57.62;101060.09;6117675;23;6989;-73
2023/10/15 09:29:41;;;;;;;;;;;;;;;14.54;57.86;101063.97;6117787;23;6855;-72
2023/10/15 09:32:07;;;;;;;;;;;;;;;14.62;57.57;101066.84;6117387;23;6922;-71
2023/10/15 09:34:38;;;;;;;;;;;;;;;14.60;56.30;101065.91;6118142;23;7195;-72
2023/10/15 09:37:07;;;;;;;;;;;;;;;14.54;55.86;101064.81;6118243;23;6774;-72
2023/10/15 09:39:38;;;;;;;;;;;;;;;14.46;55.90;101071.34;6094906;23;7046;-71
2023/10/15 09:42:04;;;;;;;;;;;;;;;14.33;55.60;101079.38;6094324;23;7449;-72
2023/10/15 09:44:32;;;;;;;;;;;;;;;14.19;55.29;101083.94;6118218;23;6758;-72
2023/10/15 09:46:59;;;;;;;;;;;;;;;13.99;55.90;101089.94;6093590;23;7246;-71
2023/10/15 09:49:26;;;;;;;;;;;;;;;13.82;55.89;101096.06;6117653;23;7048;-71
2023/10/15 09:51:52;;;;;;;;;;;;;;;13.69;56.46;101095.47;6117895;23;6997;-71
2023/10/15 09:54:19;;;;;;;;;;;;;;;13.60;55.79;101098.50;6118058;23;6813;-72
2023/10/15 09:56:49;;;;;;;;;;;;;;;13.54;56.87;101099.94;6118070;23;6933;-72
2023/10/15 09:59:15;;;;;;;;;;;;;;;13.55;57.59;101104.25;6118298;23;6959;-73
2023/10/15 10:01:49;;;;;;;;;;;;;;;13.54;56.61;101103.38;6116706;23;6867;-72
2023/10/15 10:05:41;;;;;;;;;;;;;;;13.56;56.89;101103.44;6118130;23;6778;-73
2023/10/15 10:08:27;;;;;;;;;;;;;;;13.62;58.23;101116.63;6110795;23;7204;-72
2023/10/15 10:12:07;;;;;;;;;;;;;;;13.72;58.07;101120.50;6120603;23;6945;-72
2023/10/15 10:14:44;;;;;;;;;;;;;;;13.77;57.10;101119.03;6128165;23;6774;-72
2023/10/15 10:17:12;;;;;;;;;;;;;;;13.79;57.83;101130.28;6120280;23;6935;-73
2023/10/15 10:19:41;;;;;;;;;;;;;;;13.78;57.26;101131.09;6094906;23;6989;-71
2023/10/15 10:22:24;;;;;;;;;;;;;;;13.75;57.03;101136.09;6093826;23;6971;-72
2023/10/15 10:24:50;;;;;;;;;;;;;;;13.67;56.17;101130.59;6094320;23;7135;-71
2023/10/15 10:27:17;;;;;;;;;;;;;;;13.61;56.83;101145.75;6094499;23;6969;-73
2023/10/15 10:29:53;;;;;;;;;;;;;;;13.56;57.42;101135.22;6119366;23;6771;-72
2023/10/15 10:32:21;;;;;;;;;;;;;;;13.53;56.62;101141.94;6093896;23;6828;-72
2023/10/15 10:35:18;;;;;;;;;;;;;;;13.50;56.69;101144.34;6116287;23;6989;-72
2023/10/15 10:38:07;;;;;;;;;;;;;;;13.54;58.15;101154.00;6093653;23;7052;-72
2023/10/15 10:40:56;;;;;;;;;;;;;;;13.74;58.79;101150.69;6117582;23;6774;-72
2023/10/15 10:43:24;;;;;;;;;;;;;;;14.04;57.98;101157.16;6119340;23;6809;-71
2023/10/15 10:45:59;;;;;;;;;;;;;;;14.20;57.24;101153.63;6117379;23;7126;-72
2023/10/15 10:48:33;;;;;;;;;;;;;;;14.23;55.80;101153.75;6116965;23;6771;-73
2023/10/15 10:51:53;;;;;;;;;;;;;;;14.26;56.15;101150.44;6116974;23;6805;-72
2023/10/15 10:53:59;;;;;;;;;;;;;;;14.25;56.19;101149.53;6114931;23;7144;-72
2023/10/15 10:56:44;;;;;;;;;;;;;;;14.28;56.33;101148.81;6118319;23;6936;-73
2023/10/15 10:59:13;;;;;;;;;;;;;;;14.29;56.32;101151.47;6118535;23;6771;-73
2023/10/15 11:01:45;;;;;;;;;;;;;;;14.36;56.07;101156.88;6092597;23;6966;-72
2023/10/15 11:04:15;;;;;;;;;;;;;;;14.43;55.89;101153.75;6092701;23;6990;-72
2023/10/15 11:06:45;;;;;;;;;;;;;;;14.57;56.30;101152.66;6117091;23;7375;-71
2023/10/15 11:09:19;;;;;;;;;;;;;;;14.91;57.15;101148.09;6116310;23;7715;-71
2023/10/15 11:11:47;;;;;;;;;;;;;;;15.52;55.86;101154.03;6116182;23;7149;-72
2023/10/15 11:14:18;;;;;;;;;;;;;;;15.89;54.72;101141.63;6141213;23;6789;-72
2023/10/15 11:16:45;;;;;;;;;;;;;;;15.99;53.05;101142.91;6090269;23;6985;-71
2023/10/15 11:19:18;;;;;;;;;;;;;;;15.92;52.74;101144.34;6115505;23;6966;-72
2023/10/15 11:21:44;;;;;;;;;;;;;;;15.77;52.21;101152.38;6115641;23;7259;-72
2023/10/15 11:24:11;;;;;;;;;;;;;;;15.62;51.97;101155.25;6117064;23;7157;-71
2023/10/15 11:26:41;;;;;;;;;;;;;;;15.45;52.22;101151.09;6140780;23;8045;-72
2023/10/15 11:29:13;;;;;;;;;;;;;;;15.29;52.65;101160.84;6093361;23;7050;-70
2023/10/15 11:31:44;;;;;;;;;;;;;;;15.17;52.29;101156.03;6092373;23;7226;-73
2023/10/15 11:34:22;;;;;;;;;;;;;;;15.08;52.26;101156.56;6116402;23;7121;-72
2023/10/15 11:36:50;;;;;;;;;;;;;;;15.03;52.60;101163.22;6093112;23;7844;-72
2023/10/15 11:39:18;;;;;;;;;;;;;;;15.06;53.32;101168.50;6118830;23;7007;-73
2023/10/15 11:41:56;;;;;;;;;;;;;;;15.47;53.54;101159.81;6120500;23;6778;-73
2023/10/15 11:44:31;;;;;;;;;;;;;;;16.48;53.86;101155.88;6095854;23;7033;-72
2023/10/15 11:47:01;;;;;;;;;;;;;;;17.74;52.15;101144.47;6092361;23;7009;-71
2023/10/15 11:49:27;;;;;;;;;;;;;;;19.00;50.63;101154.06;6117441;23;6770;-72
2023/10/15 11:51:56;;;;;;;;;;;;;;;20.27;48.84;101136.94;6117751;23;7411;-73
2023/10/15 11:54:30;;;;;;;;;;;;;;;20.79;46.39;101138.78;6118577;23;7189;-73
2023/10/15 11:56:59;;;;;;;;;;;;;;;20.68;45.57;101136.88;6120993;23;6846;-71
2023/10/15 11:59:26;;;;;;;;;;;;;;;20.24;45.29;101148.19;6119731;23;7319;-71
2023/10/15 12:01:53;;;;;;;;;;;;;;;19.69;45.28;101153.06;6118091;23;6986;-72
2023/10/15 12:04:19;;;;;;;;;;;;;;;19.14;45.69;101149.19;6119708;23;6826;-72
2023/10/15 12:06:48;;;;;;;;;;;;;;;18.78;46.23;101151.72;6119166;23;7001;-72
2023/10/15 12:09:24;;;;;;;;;;;;;;;18.54;46.18;101142.41;6119410;23;7125;-73
2023/10/15 12:11:53;;;;;;;;;;;;;;;18.34;46.45;101155.72;6120932;23;6851;-72
2023/10/15 12:14:19;;;;;;;;;;;;;;;18.16;46.68;101162.19;6095326;23;8411;-72
2023/10/15 12:16:45;;;;;;;;;;;;;;;18.07;46.79;101155.84;6119706;23;6787;-73
2023/10/15 12:19:11;;;;;;;;;;;;;;;17.98;46.66;101161.59;6142632;23;6829;-73
2023/10/15 12:21:38;;;;;;;;;;;;;;;17.85;46.86;101161.22;6095503;23;6763;-74
2023/10/15 12:24:08;;;;;;;;;;;;;;;17.72;46.43;101160.00;6090599;23;6937;-72
2023/10/15 12:26:35;;;;;;;;;;;;;;;17.63;46.61;101157.97;6119216;23;7032;-73
2023/10/15 12:29:03;;;;;;;;;;;;;;;17.47;46.25;101159.22;6094171;23;7308;-72
2023/10/15 12:31:32;;;;;;;;;;;;;;;17.25;45.86;101156.78;6129870;23;6783;-72
2023/10/15 12:34:01;;;;;;;;;;;;;;;16.96;45.64;101157.53;6118789;23;7372;-72
2023/10/15 12:36:28;;;;;;;;;;;;;;;16.66;45.87;101150.47;6096044;23;6980;-73
2023/10/15 12:38:56;;;;;;;;;;;;;;;16.39;46.16;101146.06;6118508;23;6775;-72
2023/10/15 12:41:25;;;;;;;;;;;;;;;16.17;45.98;101160.81;6118969;23;6779;-72
2023/10/15 12:43:58;;;;;;;;;;;;;;;15.97;46.25;101162.63;6119947;23;6977;-73
2023/10/15 12:46:29;;;;;;;;;;;;;;;15.83;46.34;101169.81;6119240;23;6939;-72
2023/10/15 12:48:56;;;;;;;;;;;;;;;15.71;46.53;101157.31;6118678;23;7041;-72
2023/10/15 12:51:23;;;;;;;;;;;;;;;15.66;46.56;101164.00;6121929;23;6955;-72
2023/10/15 12:53:49;;;;;;;;;;;;;;;15.65;46.49;101155.38;6094311;23;7227;-72
2023/10/15 12:56:15;;;;;;;;;;;;;;;15.63;46.45;101161.31;6121197;23;6755;-76
2023/10/15 12:58:40;;;;;;;;;;;;;;;15.54;46.36;101156.66;6120686;23;7000;-77
2023/10/15 13:01:07;;;;;;;;;;;;;;;15.47;46.71;101162.41;6094265;23;7512;-78
2023/10/15 13:03:33;;;;;;;;;;;;;;;15.38;46.69;101166.38;6119478;23;6775;-76
2023/10/15 13:05:59;;;;;;;;;;;;;;;15.31;46.94;101173.81;6119407;23;6851;-77
2023/10/15 13:08:25;;;;;;;;;;;;;;;15.25;47.24;101170.16;6119616;23;6759;-76
2023/10/15 13:10:51;;;;;;;;;;;;;;;15.26;47.30;101168.47;6117302;23;6767;-78